createdAt,value
2023-01-22T00:00:54.800Z,30.40
2023-01-22T00:03:24.646Z,30.40
2023-01-22T00:05:54.100Z,32.23
2023-01-22T00:08:21.008Z,27.97
2023-01-22T00:10:52.479Z,28.43
2023-01-22T00:13:20.372Z,28.17
2023-01-22T00:15:47.435Z,30.63
2023-01-22T00:18:14.541Z,27.03
2023-01-22T00:20:46.135Z,29.87
2023-01-22T00:23:12.937Z,31.10
2023-01-22T00:25:39.701Z,29.13
2023-01-22T00:28:06.983Z,31.57
2023-01-22T00:30:34.042Z,29.93
2023-01-22T00:33:00.878Z,30.50
2023-01-22T00:35:31.106Z,29.47
2023-01-22T00:37:59.440Z,30.90
2023-01-22T00:40:26.524Z,29.67
2023-01-22T00:42:56.246Z,26.33
2023-01-22T00:45:26.028Z,30.47
2023-01-22T00:47:52.776Z,29.90
2023-01-22T00:50:22.487Z,26.47
2023-01-22T00:52:52.301Z,30.13
2023-01-22T00:55:19.270Z,26.17
2023-01-22T00:57:46.005Z,29.17
2023-01-22T01:00:18.589Z,26.57
2023-01-22T01:03:04.096Z,28.57
2023-01-22T01:05:30.945Z,25.77
2023-01-22T01:07:57.731Z,31.97
2023-01-22T01:10:24.523Z,31.37
2023-01-22T01:12:54.029Z,28.30
2023-01-22T01:15:20.704Z,31.10
2023-01-22T01:17:47.540Z,31.17
2023-01-22T01:20:14.701Z,34.17
2023-01-22T01:22:41.690Z,28.40
2023-01-22T01:25:11.093Z,29.20
2023-01-22T01:27:37.888Z,29.97
2023-01-22T01:30:05.163Z,29.27
2023-01-22T01:32:31.967Z,33.40
2023-01-22T01:34:58.696Z,30.10
2023-01-22T01:37:25.437Z,29.83
2023-01-22T01:39:54.846Z,30.70
2023-01-22T01:42:25.312Z,27.43
2023-01-22T01:45:29.465Z,29.43
2023-01-22T01:48:25.160Z,35.23
2023-01-22T01:51:10.630Z,28.33
2023-01-22T01:53:38.515Z,31.33
2023-01-22T01:56:13.575Z,28.57
2023-01-22T01:58:42.629Z,23.13
2023-01-22T02:01:13.724Z,28.30
2023-01-22T02:03:41.172Z,25.10
2023-01-22T02:06:18.914Z,26.40
2023-01-22T02:08:50.399Z,25.50
2023-01-22T02:11:19.097Z,27.93
2023-01-22T02:13:53.658Z,25.13
2023-01-22T02:16:20.476Z,25.70
2023-01-22T02:18:47.562Z,25.67
2023-01-22T02:21:32.979Z,22.47
2023-01-22T02:24:00.029Z,25.53
2023-01-22T02:26:26.984Z,23.17
2023-01-22T02:28:53.845Z,25.03
2023-01-22T02:31:20.876Z,23.17
2023-01-22T02:33:47.731Z,24.53
2023-01-22T02:36:16.306Z,23.50
2023-01-22T02:38:43.054Z,24.73
2023-01-22T02:41:10.220Z,24.23
2023-01-22T02:43:40.201Z,25.53
2023-01-22T02:46:10.019Z,22.87
2023-01-22T02:48:36.867Z,24.20
2023-01-22T02:51:03.984Z,24.27
2023-01-22T02:53:31.561Z,24.00
2023-01-22T02:55:58.308Z,19.27
2023-01-22T02:58:25.187Z,23.43
2023-01-22T03:00:52.109Z,20.77
2023-01-22T03:03:18.973Z,24.20
2023-01-22T03:05:51.238Z,26.17
2023-01-22T03:08:19.732Z,23.10
2023-01-22T03:10:48.965Z,24.73
2023-01-22T03:13:34.887Z,25.60
2023-01-22T03:16:23.050Z,24.80
2023-01-22T03:19:08.643Z,26.47
2023-01-22T03:21:35.411Z,23.03
2023-01-22T03:24:02.155Z,24.67
2023-01-22T03:26:31.865Z,22.57
2023-01-22T03:28:58.656Z,23.80
2023-01-22T03:31:25.487Z,23.47
2023-01-22T03:33:52.473Z,25.17
2023-01-22T03:36:19.230Z,22.73
2023-01-22T03:38:46.128Z,23.77
2023-01-22T03:41:15.827Z,29.10
2023-01-22T03:43:42.904Z,24.53
2023-01-22T03:46:12.885Z,28.80
2023-01-22T03:48:40.442Z,25.37
2023-01-22T03:51:15.955Z,25.60
2023-01-22T03:53:44.451Z,26.43
2023-01-22T03:56:17.087Z,26.43
2023-01-22T03:58:43.964Z,27.23
2023-01-22T04:01:13.528Z,26.57
2023-01-22T04:03:41.028Z,23.00
2023-01-22T04:06:09.730Z,22.17
2023-01-22T04:08:38.397Z,22.20
2023-01-22T04:11:09.351Z,26.43
2023-01-22T04:13:37.923Z,22.37
2023-01-22T04:16:05.021Z,22.17
2023-01-22T04:18:31.821Z,25.07
2023-01-22T04:20:58.961Z,24.43
2023-01-22T04:23:25.983Z,24.63
2023-01-22T04:25:53.609Z,27.47
2023-01-22T04:28:20.377Z,23.40
2023-01-22T04:30:49.672Z,25.33
2023-01-22T04:33:16.486Z,21.43
2023-01-22T04:35:43.328Z,20.97
2023-01-22T04:38:13.299Z,22.90
2023-01-22T04:40:40.506Z,24.03
2023-01-22T04:43:08.671Z,22.83
2023-01-22T04:45:35.541Z,26.20
2023-01-22T04:48:02.626Z,23.80
2023-01-22T04:50:32.339Z,23.90
2023-01-22T04:53:00.218Z,22.13
2023-01-22T04:55:27.781Z,25.03
2023-01-22T04:57:56.473Z,23.13
2023-01-22T05:00:24.087Z,25.90
2023-01-22T05:02:51.178Z,25.80
2023-01-22T05:05:17.996Z,25.73
2023-01-22T05:07:44.770Z,25.07
2023-01-22T05:10:11.617Z,27.53
2023-01-22T05:12:38.370Z,24.70
2023-01-22T05:15:14.999Z,23.33
2023-01-22T05:17:45.663Z,23.43
2023-01-22T05:20:12.609Z,21.70
2023-01-22T05:22:39.424Z,22.60
2023-01-22T05:25:06.579Z,26.10
2023-01-22T05:27:33.467Z,27.13
2023-01-22T05:30:00.192Z,23.00
2023-01-22T05:32:28.791Z,22.70
2023-01-22T05:34:55.597Z,23.03
2023-01-22T05:37:22.399Z,24.40
2023-01-22T05:39:49.297Z,24.93
2023-01-22T05:42:16.602Z,28.57
2023-01-22T05:44:43.500Z,23.27
2023-01-22T05:47:12.360Z,20.97
2023-01-22T05:49:39.325Z,23.93
2023-01-22T05:52:06.233Z,26.77
2023-01-22T05:54:35.729Z,20.97
2023-01-22T05:57:02.421Z,19.27
2023-01-22T05:59:29.637Z,22.20
2023-01-22T06:01:56.397Z,18.53
2023-01-22T06:04:23.309Z,21.67
2023-01-22T06:06:50.116Z,20.83
2023-01-22T06:09:16.963Z,18.00
2023-01-22T06:11:49.529Z,18.47
2023-01-22T06:14:16.430Z,19.67
2023-01-22T06:16:43.359Z,24.53
2023-01-22T06:19:10.478Z,20.97
2023-01-22T06:21:37.243Z,21.60
2023-01-22T06:24:04.363Z,21.27
2023-01-22T06:26:31.250Z,17.80
2023-01-22T06:29:00.833Z,22.63
2023-01-22T06:31:27.847Z,19.00
2023-01-22T06:33:55.020Z,22.17
2023-01-22T06:36:21.903Z,19.83
2023-01-22T06:38:48.720Z,17.40
2023-01-22T06:41:15.512Z,19.17
2023-01-22T06:43:42.393Z,17.80
2023-01-22T06:46:09.602Z,20.70
2023-01-22T06:48:36.531Z,17.37
2023-01-22T06:51:03.593Z,19.70
2023-01-22T06:53:30.439Z,21.27
2023-01-22T06:55:59.909Z,21.17
2023-01-22T06:58:26.738Z,19.53
2023-01-22T07:00:53.687Z,17.27
2023-01-22T07:03:20.651Z,16.63
2023-01-22T07:05:55.083Z,18.33
2023-01-22T07:08:21.795Z,21.53
2023-01-22T07:10:51.613Z,16.60
2023-01-22T07:13:18.369Z,19.10
2023-01-22T07:15:45.236Z,17.73
2023-01-22T07:18:14.494Z,18.53
2023-01-22T07:20:42.487Z,19.13
2023-01-22T07:23:09.668Z,18.57
2023-01-22T07:25:36.559Z,18.07
2023-01-22T07:28:05.335Z,18.43
2023-01-22T07:30:32.410Z,21.37
2023-01-22T07:33:00.541Z,16.30
2023-01-22T07:35:28.220Z,15.00
2023-01-22T07:37:57.215Z,19.27
2023-01-22T07:40:25.166Z,19.40
2023-01-22T07:42:52.765Z,16.40
2023-01-22T07:45:20.056Z,17.83
2023-01-22T07:47:55.046Z,13.67
2023-01-22T07:50:29.862Z,16.50
2023-01-22T07:52:57.114Z,16.83
2023-01-22T07:55:26.862Z,15.77
2023-01-22T07:58:05.340Z,16.90
2023-01-22T08:00:34.976Z,16.27
2023-01-22T08:03:05.889Z,15.47
2023-01-22T08:05:33.233Z,17.00
2023-01-22T08:07:59.924Z,15.20
2023-01-22T08:10:29.603Z,15.27
2023-01-22T08:12:59.477Z,14.17
2023-01-22T08:15:26.199Z,17.03
2023-01-22T08:17:52.942Z,15.57
2023-01-22T08:20:20.211Z,19.03
2023-01-22T08:22:49.432Z,17.60
2023-01-22T08:25:16.749Z,17.43
2023-01-22T08:27:43.545Z,15.20
2023-01-22T08:30:11.579Z,17.07
2023-01-22T08:32:41.378Z,25.03
2023-01-22T08:35:09.262Z,19.33
2023-01-22T08:37:36.330Z,16.27
2023-01-22T08:40:06.839Z,15.40
2023-01-22T08:42:33.826Z,16.33
2023-01-22T08:45:00.693Z,16.50
2023-01-22T08:47:30.237Z,13.90
2023-01-22T08:50:02.949Z,18.17
2023-01-22T08:52:29.785Z,17.77
2023-01-22T08:54:58.837Z,20.53
2023-01-22T08:57:25.679Z,17.93
2023-01-22T09:00:00.719Z,15.23
2023-01-22T09:02:28.067Z,21.33
2023-01-22T09:04:57.758Z,20.00
2023-01-22T09:07:24.599Z,17.33
2023-01-22T09:09:51.431Z,16.43
2023-01-22T09:12:26.684Z,13.03
2023-01-22T09:14:53.396Z,23.43
2023-01-22T09:17:20.177Z,15.20
2023-01-22T09:19:46.939Z,18.10
2023-01-22T09:22:13.708Z,19.50
2023-01-22T09:24:40.526Z,16.00
2023-01-22T09:27:09.177Z,18.63
2023-01-22T09:29:37.301Z,17.50
2023-01-22T09:32:04.174Z,17.50
2023-01-22T09:34:34.359Z,17.00
2023-01-22T09:37:05.378Z,14.70
2023-01-22T09:39:32.140Z,14.87
2023-01-22T09:42:01.960Z,17.63
2023-01-22T09:44:40.766Z,15.30
2023-01-22T09:47:12.859Z,15.10
2023-01-22T09:49:56.046Z,17.07
2023-01-22T09:52:27.458Z,15.23
2023-01-22T09:54:54.449Z,14.67
2023-01-22T09:57:31.266Z,14.77
2023-01-22T09:59:59.395Z,16.53
2023-01-22T10:02:42.588Z,18.03
2023-01-22T10:05:48.758Z,18.13
2023-01-22T10:08:22.777Z,15.80
2023-01-22T10:10:54.143Z,20.07
2023-01-22T10:13:31.354Z,16.23
2023-01-22T10:15:58.332Z,19.30
2023-01-22T10:18:41.623Z,18.77
2023-01-22T10:21:19.381Z,17.13
2023-01-22T10:23:46.400Z,14.57
2023-01-22T10:26:25.355Z,18.10
2023-01-22T10:28:59.265Z,15.77
2023-01-22T10:31:35.344Z,16.63
2023-01-22T10:34:10.737Z,15.77
2023-01-22T10:36:37.487Z,15.73
2023-01-22T10:39:07.091Z,18.10
2023-01-22T10:41:33.902Z,15.23
2023-01-22T10:44:22.541Z,16.87
2023-01-22T10:46:53.641Z,14.00
2023-01-22T10:49:27.020Z,14.97
2023-01-22T10:51:58.871Z,14.57
2023-01-22T10:54:43.741Z,20.37
2023-01-22T10:57:37.472Z,16.17
2023-01-22T11:00:13.610Z,15.57
2023-01-22T11:02:46.159Z,14.93
2023-01-22T11:05:24.787Z,14.83
2023-01-22T11:07:59.619Z,18.40
2023-01-22T11:10:30.332Z,16.30
2023-01-22T11:13:43.186Z,13.60
2023-01-22T11:16:13.017Z,13.73
2023-01-22T11:18:43.088Z,14.10
2023-01-22T11:21:46.900Z,15.40
2023-01-22T11:24:48.584Z,13.20
2023-01-22T11:27:21.074Z,12.10
2023-01-22T11:30:21.885Z,15.83
2023-01-22T11:32:56.487Z,13.27
2023-01-22T11:35:41.288Z,14.73
2023-01-22T11:38:23.339Z,11.53
2023-01-22T11:41:16.440Z,12.80
2023-01-22T11:44:17.404Z,13.93
2023-01-22T11:46:53.185Z,13.63
2023-01-22T11:49:40.589Z,12.33
2023-01-22T11:52:42.810Z,12.57
2023-01-22T11:55:41.859Z,14.83
2023-01-22T11:58:35.966Z,15.97
2023-01-22T12:01:13.489Z,14.33
2023-01-22T12:03:49.686Z,13.70
2023-01-22T12:06:27.430Z,14.83
2023-01-22T12:09:05.062Z,14.63
2023-01-22T12:11:50.557Z,12.07
2023-01-22T12:14:59.650Z,14.27
2023-01-22T12:18:06.400Z,14.57
2023-01-22T12:20:57.297Z,13.07
2023-01-22T12:23:34.899Z,16.10
2023-01-22T12:26:06.985Z,13.77
2023-01-22T12:29:09.134Z,13.87
2023-01-22T12:31:48.741Z,13.47
2023-01-22T12:34:52.994Z,13.90
2023-01-22T12:37:42.130Z,13.13
2023-01-22T12:40:29.484Z,13.67
2023-01-22T12:43:06.700Z,11.93
2023-01-22T12:45:42.244Z,12.73
2023-01-22T12:48:11.991Z,16.50
2023-01-22T12:50:50.255Z,14.33
2023-01-22T12:53:24.119Z,19.07
2023-01-22T12:55:58.657Z,12.73
2023-01-22T12:58:28.168Z,13.30
2023-01-22T13:01:11.546Z,12.20
2023-01-22T13:03:42.383Z,13.83
2023-01-22T13:06:46.300Z,16.70
2023-01-22T13:09:25.987Z,12.47
2023-01-22T13:11:52.813Z,11.83
2023-01-22T13:14:24.060Z,14.13
2023-01-22T13:17:00.570Z,15.53
2023-01-22T13:19:38.704Z,15.10
2023-01-22T13:22:35.125Z,14.47
2023-01-22T13:25:01.987Z,15.00
2023-01-22T13:27:32.193Z,15.17
2023-01-22T13:30:09.326Z,13.93
2023-01-22T13:32:38.406Z,17.23
2023-01-22T13:35:06.943Z,15.53
2023-01-22T13:37:35.773Z,16.50
2023-01-22T13:40:15.558Z,17.87
2023-01-22T13:42:46.316Z,13.77
2023-01-22T13:45:24.959Z,13.90
2023-01-22T13:48:04.050Z,16.87
2023-01-22T13:50:32.503Z,14.17
2023-01-22T13:53:02.009Z,13.97
2023-01-22T13:55:29.925Z,14.20
2023-01-22T13:58:01.211Z,15.07
2023-01-22T14:00:31.515Z,15.30
2023-01-22T14:02:59.406Z,15.47
2023-01-22T14:05:29.465Z,15.10
2023-01-22T14:08:08.115Z,14.13
2023-01-22T14:10:37.787Z,14.23
2023-01-22T14:13:13.356Z,16.53
2023-01-22T14:15:41.774Z,14.73
2023-01-22T14:18:14.191Z,14.10
2023-01-22T14:20:41.973Z,14.43
2023-01-22T14:23:08.996Z,17.47
2023-01-22T14:25:40.805Z,14.30
2023-01-22T14:28:08.078Z,16.57
2023-01-22T14:30:35.222Z,18.07
2023-01-22T14:33:02.378Z,14.57
2023-01-22T14:35:31.498Z,15.27
2023-01-22T14:37:58.370Z,17.10
2023-01-22T14:40:27.107Z,13.83
2023-01-22T14:42:56.527Z,14.77
2023-01-22T14:45:23.360Z,14.07
2023-01-22T14:47:53.999Z,13.07
2023-01-22T14:50:22.558Z,17.00
2023-01-22T14:52:51.491Z,15.60
2023-01-22T14:55:19.330Z,18.97
2023-01-22T14:57:46.369Z,17.07
2023-01-22T15:00:16.075Z,16.43
2023-01-22T15:02:43.379Z,15.60
2023-01-22T15:05:11.655Z,16.50
2023-01-22T15:07:39.511Z,18.27
2023-01-22T15:10:08.241Z,18.83
2023-01-22T15:12:35.228Z,16.40
2023-01-22T15:15:06.107Z,15.87
2023-01-22T15:17:32.882Z,15.57
2023-01-22T15:20:01.849Z,17.50
2023-01-22T15:22:28.707Z,19.27
2023-01-22T15:24:55.440Z,21.57
2023-01-22T15:27:22.670Z,17.57
2023-01-22T15:29:49.441Z,18.07
2023-01-22T15:32:16.269Z,19.33
2023-01-22T15:34:43.124Z,23.20
2023-01-22T15:37:14.845Z,19.20
2023-01-22T15:39:42.102Z,18.47
2023-01-22T15:42:09.125Z,17.90
2023-01-22T15:44:37.662Z,19.57
2023-01-22T15:47:04.845Z,19.37
2023-01-22T15:49:31.712Z,17.07
2023-01-22T15:51:58.462Z,20.87
2023-01-22T15:54:26.864Z,19.20
2023-01-22T15:56:54.449Z,17.27
2023-01-22T15:59:21.199Z,17.70
2023-01-22T16:01:48.168Z,19.23
2023-01-22T16:04:15.119Z,18.63
2023-01-22T16:06:41.881Z,20.03
2023-01-22T16:09:08.877Z,22.33
2023-01-22T16:11:36.194Z,21.03
2023-01-22T16:14:03.698Z,20.27
2023-01-22T16:16:33.827Z,20.73
2023-01-22T16:19:02.138Z,19.50
2023-01-22T16:21:29.216Z,20.43
2023-01-22T16:23:58.715Z,22.80
2023-01-22T16:26:31.388Z,21.90
2023-01-22T16:28:59.679Z,22.47
2023-01-22T16:31:29.535Z,22.93
2023-01-22T16:33:59.172Z,20.33
2023-01-22T16:36:29.072Z,21.33
2023-01-22T16:38:56.250Z,21.53
2023-01-22T16:41:28.485Z,21.47
2023-01-22T16:44:02.086Z,23.80
2023-01-22T16:46:31.251Z,25.13
2023-01-22T16:49:07.051Z,20.83
2023-01-22T16:51:39.894Z,20.40
2023-01-22T16:54:07.437Z,24.33
2023-01-22T16:56:35.135Z,24.30
2023-01-22T16:59:02.111Z,25.33
2023-01-22T17:01:30.497Z,22.37
2023-01-22T17:03:57.493Z,22.47
2023-01-22T17:06:39.790Z,21.83
2023-01-22T17:09:07.927Z,20.27
2023-01-22T17:11:34.704Z,25.77
2023-01-22T17:14:02.224Z,22.00
2023-01-22T17:16:28.956Z,22.67
2023-01-22T17:18:56.195Z,21.87
2023-01-22T17:21:23.155Z,27.90
2023-01-22T17:23:49.932Z,25.27
2023-01-22T17:26:17.723Z,24.23
2023-01-22T17:28:45.940Z,29.77
2023-01-22T17:31:18.963Z,24.80
2023-01-22T17:33:46.673Z,24.87
2023-01-22T17:36:14.946Z,25.30
2023-01-22T17:38:42.651Z,23.30
2023-01-22T17:41:16.166Z,24.40
2023-01-22T17:43:45.647Z,26.50
2023-01-22T17:46:20.848Z,20.27
2023-01-22T17:48:49.003Z,22.33
2023-01-22T17:51:21.970Z,20.90
2023-01-22T17:53:50.619Z,19.63
2023-01-22T17:56:24.349Z,21.90
2023-01-22T17:58:54.139Z,21.80
2023-01-22T18:01:27.930Z,28.17
2023-01-22T18:03:57.810Z,24.10
2023-01-22T18:06:24.762Z,24.30
2023-01-22T18:08:52.099Z,25.00
2023-01-22T18:11:20.985Z,27.27
2023-01-22T18:13:48.498Z,27.63
2023-01-22T18:16:20.282Z,28.33
2023-01-22T18:18:47.356Z,24.27
2023-01-22T18:21:16.611Z,21.00
2023-01-22T18:23:44.188Z,26.37
2023-01-22T18:26:11.035Z,21.70
2023-01-22T18:28:38.186Z,24.87
2023-01-22T18:31:10.667Z,26.40
2023-01-22T18:33:38.493Z,25.57
2023-01-22T18:36:08.922Z,25.23
2023-01-22T18:38:36.997Z,25.67
2023-01-22T18:41:10.449Z,22.93
2023-01-22T18:43:41.192Z,25.37
2023-01-22T18:46:12.466Z,20.57
2023-01-22T18:48:40.935Z,20.33
2023-01-22T18:51:10.360Z,22.20
2023-01-22T18:53:39.342Z,24.97
2023-01-22T18:56:07.395Z,23.27
2023-01-22T18:58:38.644Z,22.27
2023-01-22T19:01:17.097Z,25.00
2023-01-22T19:03:45.929Z,24.23
2023-01-22T19:06:16.223Z,24.37
2023-01-22T19:08:55.737Z,23.60
2023-01-22T19:11:23.119Z,21.77
2023-01-22T19:13:53.224Z,27.57
2023-01-22T19:16:20.827Z,25.03
2023-01-22T19:18:47.951Z,26.50
2023-01-22T19:21:17.597Z,24.47
2023-01-22T19:23:47.315Z,29.57
2023-01-22T19:26:18.424Z,23.83
2023-01-22T19:28:45.270Z,25.00
2023-01-22T19:31:21.283Z,25.20
2023-01-22T19:33:50.550Z,25.63
2023-01-22T19:36:18.281Z,29.40
2023-01-22T19:38:45.815Z,25.03
2023-01-22T19:41:14.282Z,24.53
2023-01-22T19:43:42.071Z,25.47
2023-01-22T19:46:13.608Z,27.40
2023-01-22T19:48:41.057Z,25.17
2023-01-22T19:51:10.909Z,24.77
2023-01-22T19:53:39.317Z,26.20
2023-01-22T19:56:17.680Z,22.53
2023-01-22T19:58:45.609Z,25.87
2023-01-22T20:01:12.757Z,24.07
2023-01-22T20:03:39.685Z,22.37
2023-01-22T20:06:10.911Z,26.23
2023-01-22T20:08:40.667Z,25.50
2023-01-22T20:11:09.256Z,24.27
2023-01-22T20:13:38.722Z,26.23
2023-01-22T20:16:07.026Z,25.53
2023-01-22T20:18:35.151Z,23.13
2023-01-22T20:21:02.867Z,22.57
2023-01-22T20:23:29.650Z,22.47
2023-01-22T20:25:57.143Z,27.33
2023-01-22T20:28:24.028Z,25.07
2023-01-22T20:31:03.952Z,24.63
2023-01-22T20:33:32.266Z,24.83
2023-01-22T20:36:02.141Z,24.63
2023-01-22T20:38:29.837Z,27.97
2023-01-22T20:41:01.899Z,25.77
2023-01-22T20:43:29.413Z,26.00
2023-01-22T20:46:08.168Z,25.87
2023-01-22T20:48:35.231Z,23.53
2023-01-22T20:51:02.335Z,26.63
2023-01-22T20:53:29.877Z,27.97
2023-01-22T20:56:05.715Z,22.13
2023-01-22T20:58:33.285Z,26.23
2023-01-22T21:01:12.476Z,25.73
2023-01-22T21:03:46.387Z,28.10
2023-01-22T21:06:16.016Z,20.07
2023-01-22T21:08:44.759Z,23.67
2023-01-22T21:11:13.412Z,22.30
2023-01-22T21:13:40.566Z,26.23
2023-01-22T21:16:15.104Z,26.90
2023-01-22T21:18:44.570Z,23.87
2023-01-22T21:21:14.958Z,25.57
2023-01-22T21:23:41.808Z,21.83
2023-01-22T21:26:12.444Z,23.97
2023-01-22T21:28:42.461Z,24.40
2023-01-22T21:31:14.825Z,28.40
2023-01-22T21:33:43.066Z,26.70
2023-01-22T21:36:11.576Z,23.67
2023-01-22T21:38:39.409Z,22.50
2023-01-22T21:41:08.386Z,24.77
2023-01-22T21:43:54.268Z,23.93
2023-01-22T21:46:27.446Z,26.93
2023-01-22T21:48:58.254Z,24.47
2023-01-22T21:51:29.247Z,26.10
2023-01-22T21:53:57.328Z,24.97
2023-01-22T21:56:24.622Z,29.03
2023-01-22T21:58:51.443Z,28.43
2023-01-22T22:01:22.158Z,23.83
2023-01-22T22:03:49.180Z,26.30
2023-01-22T22:06:16.066Z,25.23
2023-01-22T22:08:45.599Z,24.47
2023-01-22T22:11:13.752Z,25.60
2023-01-22T22:13:41.071Z,23.73
2023-01-22T22:16:08.799Z,25.77
2023-01-22T22:18:35.915Z,29.90
2023-01-22T22:21:06.913Z,25.17
2023-01-22T22:23:35.282Z,24.43
2023-01-22T22:26:06.507Z,24.80
2023-01-22T22:28:34.872Z,23.80
2023-01-22T22:31:20.447Z,26.23
2023-01-22T22:33:49.617Z,27.23
2023-01-22T22:36:18.780Z,26.50
2023-01-22T22:38:45.787Z,28.30
2023-01-22T22:41:21.923Z,26.93
2023-01-22T22:43:52.022Z,30.80
2023-01-22T22:46:20.263Z,25.23
2023-01-22T22:48:47.733Z,29.90
2023-01-22T22:51:22.919Z,25.73
2023-01-22T22:53:53.496Z,26.13
2023-01-22T22:56:20.540Z,26.80
2023-01-22T22:58:47.494Z,29.47
2023-01-22T23:01:18.173Z,26.63
2023-01-22T23:03:45.007Z,24.67
2023-01-22T23:06:14.996Z,35.27
2023-01-22T23:08:43.983Z,27.57
2023-01-22T23:11:14.263Z,25.90
2023-01-22T23:13:44.412Z,27.03
2023-01-22T23:16:14.168Z,27.90
2023-01-22T23:18:41.188Z,25.10
2023-01-22T23:21:20.005Z,27.20
2023-01-22T23:23:47.233Z,28.80
2023-01-22T23:26:16.359Z,23.33
2023-01-22T23:28:46.032Z,25.10
2023-01-22T23:31:15.167Z,25.97
2023-01-22T23:33:42.424Z,25.57
2023-01-22T23:36:17.243Z,27.40
2023-01-22T23:38:48.091Z,30.07
2023-01-22T23:41:17.208Z,24.10
2023-01-22T23:43:44.285Z,28.60
2023-01-22T23:46:14.013Z,27.77
2023-01-22T23:48:40.967Z,24.30
2023-01-22T23:51:09.339Z,27.43
2023-01-22T23:53:37.788Z,27.73
2023-01-22T23:56:05.345Z,25.27
2023-01-22T23:58:32.651Z,27.20
